sensor_id;sensor_type;location;lat;lon;timestamp;pressure;altitude;pressure_sealevel;temperature;humidity
6387;BME280;3226;42.162;24.756;2023-04-08T00:00:21;99891.66;;;7.65;58.37
6387;BME280;3226;42.162;24.756;2023-04-08T00:02:51;99895.59;;;7.45;58.10
6387;BME280;3226;42.162;24.756;2023-04-08T00:05:19;99898.94;;;7.47;58.72
6387;BME280;3226;42.162;24.756;2023-04-08T00:07:47;99898.28;;;7.31;58.99
6387;BME280;3226;42.162;24.756;2023-04-08T00:10:15;99882.72;;;7.29;59.27
6387;BME280;3226;42.162;24.756;2023-04-08T00:12:43;99896.25;;;7.21;58.88
6387;BME280;3226;42.162;24.756;2023-04-08T00:15:11;99902.94;;;6.98;60.09
6387;BME280;3226;42.162;24.756;2023-04-08T00:17:40;99899.97;;;6.90;61.20
6387;BME280;3226;42.162;24.756;2023-04-08T00:20:10;99901.56;;;6.92;61.79
6387;BME280;3226;42.162;24.756;2023-04-08T00:22:38;99901.72;;;7.04;61.20
6387;BME280;3226;42.162;24.756;2023-04-08T00:25:07;99905.72;;;7.09;60.59
6387;BME280;3226;42.162;24.756;2023-04-08T00:27:35;99908.47;;;7.06;60.88
6387;BME280;3226;42.162;24.756;2023-04-08T00:30:04;99912.66;;;7.09;61.02
6387;BME280;3226;42.162;24.756;2023-04-08T00:32:32;99905.50;;;7.13;60.86
6387;BME280;3226;42.162;24.756;2023-04-08T00:35:00;99899.84;;;7.06;61.34
6387;BME280;3226;42.162;24.756;2023-04-08T00:37:29;99901.69;;;6.76;62.36
6387;BME280;3226;42.162;24.756;2023-04-08T00:39:58;99905.84;;;6.79;61.82
6387;BME280;3226;42.162;24.756;2023-04-08T00:42:26;99909.44;;;6.63;61.47
6387;BME280;3226;42.162;24.756;2023-04-08T00:44:56;99891.91;;;6.80;60.79
6387;BME280;3226;42.162;24.756;2023-04-08T00:47:24;99902.66;;;6.88;61.28
6387;BME280;3226;42.162;24.756;2023-04-08T00:49:52;99910.59;;;6.87;62.31
6387;BME280;3226;42.162;24.756;2023-04-08T00:52:20;99912.84;;;6.78;61.59
6387;BME280;3226;42.162;24.756;2023-04-08T00:54:49;99910.44;;;6.75;61.63
6387;BME280;3226;42.162;24.756;2023-04-08T00:57:18;99915.38;;;6.65;61.18
6387;BME280;3226;42.162;24.756;2023-04-08T00:59:45;99919.06;;;6.76;64.05
6387;BME280;3226;42.162;24.756;2023-04-08T01:02:18;99921.31;;;6.68;65.43
6387;BME280;3226;42.162;24.756;2023-04-08T01:04:53;99920.84;;;6.75;65.59
6387;BME280;3226;42.162;24.756;2023-04-08T01:07:26;99922.97;;;6.83;66.26
6387;BME280;3226;42.162;24.756;2023-04-08T01:09:57;99930.91;;;7.09;66.50
6387;BME280;3226;42.162;24.756;2023-04-08T01:12:29;99930.31;;;7.18;66.51
6387;BME280;3226;42.162;24.756;2023-04-08T01:15:01;99936.50;;;7.03;68.06
6387;BME280;3226;42.162;24.756;2023-04-08T01:17:30;99916.88;;;6.97;69.28
6387;BME280;3226;42.162;24.756;2023-04-08T01:20:00;99934.84;;;7.02;70.94
6387;BME280;3226;42.162;24.756;2023-04-08T01:22:37;99924.81;;;6.96;72.24
6387;BME280;3226;42.162;24.756;2023-04-08T01:25:13;99932.56;;;7.10;72.69
6387;BME280;3226;42.162;24.756;2023-04-08T01:27:45;99930.63;;;7.14;73.34
6387;BME280;3226;42.162;24.756;2023-04-08T01:30:17;99931.09;;;7.06;74.69
6387;BME280;3226;42.162;24.756;2023-04-08T01:32:46;99933.16;;;6.86;76.63
6387;BME280;3226;42.162;24.756;2023-04-08T01:35:14;99936.16;;;6.80;77.71
6387;BME280;3226;42.162;24.756;2023-04-08T01:37:44;99938.78;;;6.80;78.88
6387;BME280;3226;42.162;24.756;2023-04-08T01:40:14;99933.00;;;6.75;79.54
6387;BME280;3226;42.162;24.756;2023-04-08T01:42:46;99924.09;;;6.79;79.59
6387;BME280;3226;42.162;24.756;2023-04-08T01:45:15;99933.59;;;6.65;81.16
6387;BME280;3226;42.162;24.756;2023-04-08T01:47:44;99930.34;;;6.76;81.15
6387;BME280;3226;42.162;24.756;2023-04-08T01:50:14;99939.31;;;6.85;81.00
6387;BME280;3226;42.162;24.756;2023-04-08T01:52:43;99935.53;;;6.76;81.38
6387;BME280;3226;42.162;24.756;2023-04-08T01:55:12;99931.06;;;6.78;81.68
6387;BME280;3226;42.162;24.756;2023-04-08T01:57:43;99947.50;;;6.79;81.86
6387;BME280;3226;42.162;24.756;2023-04-08T02:00:19;99953.19;;;6.71;82.89
6387;BME280;3226;42.162;24.756;2023-04-08T02:02:48;99957.19;;;6.77;82.92
6387;BME280;3226;42.162;24.756;2023-04-08T02:05:17;99960.81;;;6.74;83.27
6387;BME280;3226;42.162;24.756;2023-04-08T02:07:46;99955.97;;;6.68;83.84
6387;BME280;3226;42.162;24.756;2023-04-08T02:10:14;99956.28;;;6.63;84.24
6387;BME280;3226;42.162;24.756;2023-04-08T02:12:43;99960.19;;;6.56;85.07
6387;BME280;3226;42.162;24.756;2023-04-08T02:15:11;99956.19;;;6.50;85.46
6387;BME280;3226;42.162;24.756;2023-04-08T02:17:44;99951.16;;;6.47;85.85
6387;BME280;3226;42.162;24.756;2023-04-08T02:20:17;99962.06;;;6.54;86.01
6387;BME280;3226;42.162;24.756;2023-04-08T02:22:48;99966.50;;;6.67;85.15
6387;BME280;3226;42.162;24.756;2023-04-08T02:25:23;99962.88;;;6.55;85.70
6387;BME280;3226;42.162;24.756;2023-04-08T02:27:52;99962.59;;;6.45;86.72
6387;BME280;3226;42.162;24.756;2023-04-08T02:30:21;99963.34;;;6.61;86.03
6387;BME280;3226;42.162;24.756;2023-04-08T02:32:53;99970.19;;;6.48;86.44
6387;BME280;3226;42.162;24.756;2023-04-08T02:35:21;99957.13;;;6.49;87.28
6387;BME280;3226;42.162;24.756;2023-04-08T02:37:50;99960.00;;;6.59;86.70
6387;BME280;3226;42.162;24.756;2023-04-08T02:40:23;99968.34;;;6.50;87.31
6387;BME280;3226;42.162;24.756;2023-04-08T02:42:52;99961.56;;;6.47;87.51
6387;BME280;3226;42.162;24.756;2023-04-08T02:45:20;99938.44;;;6.28;88.58
6387;BME280;3226;42.162;24.756;2023-04-08T02:47:49;99965.75;;;6.50;88.47
6387;BME280;3226;42.162;24.756;2023-04-08T02:50:18;99965.56;;;6.39;88.07
6387;BME280;3226;42.162;24.756;2023-04-08T02:52:46;99962.47;;;6.17;89.68
6387;BME280;3226;42.162;24.756;2023-04-08T02:55:14;99965.00;;;6.19;90.56
6387;BME280;3226;42.162;24.756;2023-04-08T02:57:42;99967.97;;;6.27;90.39
6387;BME280;3226;42.162;24.756;2023-04-08T03:00:11;99972.41;;;6.11;91.37
6387;BME280;3226;42.162;24.756;2023-04-08T03:02:39;99971.88;;;6.20;90.89
6387;BME280;3226;42.162;24.756;2023-04-08T03:05:08;99973.81;;;6.16;91.25
6387;BME280;3226;42.162;24.756;2023-04-08T03:07:38;99982.94;;;6.38;90.21
6387;BME280;3226;42.162;24.756;2023-04-08T03:10:07;99984.16;;;6.32;90.24
6387;BME280;3226;42.162;24.756;2023-04-08T03:12:35;99991.47;;;6.26;91.09
6387;BME280;3226;42.162;24.756;2023-04-08T03:15:03;99973.06;;;6.14;91.01
6387;BME280;3226;42.162;24.756;2023-04-08T03:17:31;99987.75;;;6.30;91.30
6387;BME280;3226;42.162;24.756;2023-04-08T03:20:00;99983.78;;;6.24;91.31
6387;BME280;3226;42.162;24.756;2023-04-08T03:22:30;99981.41;;;6.05;92.90
6387;BME280;3226;42.162;24.756;2023-04-08T03:24:59;99981.81;;;5.97;93.50
6387;BME280;3226;42.162;24.756;2023-04-08T03:27:27;99990.78;;;6.07;94.49
6387;BME280;3226;42.162;24.756;2023-04-08T03:29:55;99988.88;;;5.95;95.08
6387;BME280;3226;42.162;24.756;2023-04-08T03:32:24;99982.06;;;5.92;95.21
6387;BME280;3226;42.162;24.756;2023-04-08T03:34:52;99984.34;;;5.83;95.27
6387;BME280;3226;42.162;24.756;2023-04-08T03:37:20;99983.97;;;5.74;96.23
6387;BME280;3226;42.162;24.756;2023-04-08T03:39:48;99991.38;;;5.66;96.91
6387;BME280;3226;42.162;24.756;2023-04-08T03:42:17;99995.31;;;5.57;98.19
6387;BME280;3226;42.162;24.756;2023-04-08T03:44:45;99992.06;;;5.70;97.55
6387;BME280;3226;42.162;24.756;2023-04-08T03:47:13;99992.72;;;5.57;98.17
6387;BME280;3226;42.162;24.756;2023-04-08T03:49:41;99987.31;;;5.76;97.43
6387;BME280;3226;42.162;24.756;2023-04-08T03:52:09;99992.22;;;5.67;97.59
6387;BME280;3226;42.162;24.756;2023-04-08T03:54:37;99990.75;;;5.77;97.50
6387;BME280;3226;42.162;24.756;2023-04-08T03:57:05;99995.53;;;5.85;97.69
6387;BME280;3226;42.162;24.756;2023-04-08T03:59:34;99999.31;;;5.79;97.42
6387;BME280;3226;42.162;24.756;2023-04-08T04:02:03;100003.44;;;5.67;98.04
6387;BME280;3226;42.162;24.756;2023-04-08T04:04:31;99994.94;;;5.79;98.19
6387;BME280;3226;42.162;24.756;2023-04-08T04:06:59;100013.00;;;5.97;96.80
6387;BME280;3226;42.162;24.756;2023-04-08T04:09:27;100005.44;;;5.78;97.86
6387;BME280;3226;42.162;24.756;2023-04-08T04:11:55;100005.13;;;5.68;97.66
6387;BME280;3226;42.162;24.756;2023-04-08T04:14:23;100005.69;;;5.73;98.42
6387;BME280;3226;42.162;24.756;2023-04-08T04:16:52;99980.06;;;5.67;97.63
6387;BME280;3226;42.162;24.756;2023-04-08T04:19:20;100011.13;;;5.85;97.73
6387;BME280;3226;42.162;24.756;2023-04-08T04:21:48;100011.38;;;5.80;98.47
6387;BME280;3226;42.162;24.756;2023-04-08T04:24:16;100013.47;;;5.73;98.72
6387;BME280;3226;42.162;24.756;2023-04-08T04:26:45;100014.00;;;5.64;99.10
6387;BME280;3226;42.162;24.756;2023-04-08T04:29:13;100025.72;;;5.71;99.63
6387;BME280;3226;42.162;24.756;2023-04-08T04:31:41;100023.81;;;5.59;99.86
6387;BME280;3226;42.162;24.756;2023-04-08T04:34:10;100013.00;;;5.67;100.00
6387;BME280;3226;42.162;24.756;2023-04-08T04:36:38;100009.63;;;5.64;99.79
6387;BME280;3226;42.162;24.756;2023-04-08T04:39:06;100014.19;;;5.61;99.56
6387;BME280;3226;42.162;24.756;2023-04-08T04:41:34;100010.53;;;5.79;99.77
6387;BME280;3226;42.162;24.756;2023-04-08T04:44:06;100015.47;;;5.84;98.81
6387;BME280;3226;42.162;24.756;2023-04-08T04:46:34;100010.53;;;5.79;99.55
6387;BME280;3226;42.162;24.756;2023-04-08T04:49:01;100019.03;;;5.67;99.86
6387;BME280;3226;42.162;24.756;2023-04-08T04:51:31;100022.78;;;5.77;100.00
6387;BME280;3226;42.162;24.756;2023-04-08T04:53:59;100021.13;;;5.60;100.00
6387;BME280;3226;42.162;24.756;2023-04-08T04:56:27;100015.91;;;5.76;100.00
6387;BME280;3226;42.162;24.756;2023-04-08T04:58:55;100023.03;;;5.89;99.48
6387;BME280;3226;42.162;24.756;2023-04-08T05:01:23;100014.06;;;5.78;99.41
6387;BME280;3226;42.162;24.756;2023-04-08T05:03:51;100021.22;;;5.75;99.95
6387;BME280;3226;42.162;24.756;2023-04-08T05:06:19;100026.38;;;5.91;100.00
6387;BME280;3226;42.162;24.756;2023-04-08T05:08:48;100023.09;;;6.03;99.40
6387;BME280;3226;42.162;24.756;2023-04-08T05:11:17;100029.84;;;6.22;98.57
6387;BME280;3226;42.162;24.756;2023-04-08T05:13:47;100026.31;;;6.23;98.23
6387;BME280;3226;42.162;24.756;2023-04-08T05:16:15;100030.47;;;6.26;98.23
6387;BME280;3226;42.162;24.756;2023-04-08T05:18:43;100033.94;;;6.41;98.11
6387;BME280;3226;42.162;24.756;2023-04-08T05:21:11;100039.91;;;6.43;97.27
6387;BME280;3226;42.162;24.756;2023-04-08T05:23:39;100041.88;;;6.54;97.31
6387;BME280;3226;42.162;24.756;2023-04-08T05:26:09;100042.53;;;6.57;95.55
6387;BME280;3226;42.162;24.756;2023-04-08T05:28:37;100041.94;;;6.52;95.41
6387;BME280;3226;42.162;24.756;2023-04-08T05:31:05;100054.19;;;6.35;96.25
6387;BME280;3226;42.162;24.756;2023-04-08T05:33:33;100052.53;;;6.34;96.28
6387;BME280;3226;42.162;24.756;2023-04-08T05:36:00;100045.13;;;6.12;96.62
6387;BME280;3226;42.162;24.756;2023-04-08T05:38:28;100055.38;;;6.30;96.71
6387;BME280;3226;42.162;24.756;2023-04-08T05:40:56;100052.19;;;6.10;97.43
6387;BME280;3226;42.162;24.756;2023-04-08T05:43:26;100050.47;;;6.25;97.88
6387;BME280;3226;42.162;24.756;2023-04-08T05:45:54;100050.22;;;6.44;96.09
6387;BME280;3226;42.162;24.756;2023-04-08T05:48:22;100050.91;;;6.62;95.17
6387;BME280;3226;42.162;24.756;2023-04-08T05:50:49;100027.63;;;6.30;95.51
6387;BME280;3226;42.162;24.756;2023-04-08T05:53:17;100055.13;;;6.34;96.28
6387;BME280;3226;42.162;24.756;2023-04-08T05:55:46;100060.00;;;6.55;95.96
6387;BME280;3226;42.162;24.756;2023-04-08T05:58:13;100032.88;;;6.59;94.61
6387;BME280;3226;42.162;24.756;2023-04-08T06:00:43;100058.06;;;6.88;92.58
6387;BME280;3226;42.162;24.756;2023-04-08T06:03:11;100046.63;;;6.61;93.43
6387;BME280;3226;42.162;24.756;2023-04-08T06:05:39;100053.31;;;6.80;92.56
6387;BME280;3226;42.162;24.756;2023-04-08T06:08:07;100056.00;;;6.93;92.04
6387;BME280;3226;42.162;24.756;2023-04-08T06:10:35;100053.88;;;6.85;92.73
6387;BME280;3226;42.162;24.756;2023-04-08T06:13:03;100056.03;;;7.07;91.41
6387;BME280;3226;42.162;24.756;2023-04-08T06:15:31;100057.47;;;7.26;90.14
6387;BME280;3226;42.162;24.756;2023-04-08T06:18:01;100058.81;;;7.46;89.16
6387;BME280;3226;42.162;24.756;2023-04-08T06:20:29;100058.84;;;7.74;87.24
6387;BME280;3226;42.162;24.756;2023-04-08T06:22:57;100059.72;;;7.60;87.12
6387;BME280;3226;42.162;24.756;2023-04-08T06:25:25;100066.69;;;7.17;89.33
6387;BME280;3226;42.162;24.756;2023-04-08T06:27:53;100065.72;;;7.47;88.50
6387;BME280;3226;42.162;24.756;2023-04-08T06:30:21;100063.50;;;7.69;86.81
6387;BME280;3226;42.162;24.756;2023-04-08T06:32:49;100051.06;;;7.87;86.17
6387;BME280;3226;42.162;24.756;2023-04-08T06:35:18;100061.66;;;8.11;84.45
6387;BME280;3226;42.162;24.756;2023-04-08T06:37:46;100053.78;;;8.38;82.65
6387;BME280;3226;42.162;24.756;2023-04-08T06:40:15;100053.28;;;8.33;82.06
6387;BME280;3226;42.162;24.756;2023-04-08T06:42:42;100059.03;;;8.64;80.92
6387;BME280;3226;42.162;24.756;2023-04-08T06:45:11;100056.53;;;9.02;78.51
6387;BME280;3226;42.162;24.756;2023-04-08T06:47:39;100059.03;;;8.64;79.58
6387;BME280;3226;42.162;24.756;2023-04-08T06:50:07;100057.06;;;8.81;79.09
6387;BME280;3226;42.162;24.756;2023-04-08T06:52:37;100057.41;;;9.26;77.18
6387;BME280;3226;42.162;24.756;2023-04-08T06:55:05;100060.06;;;9.51;77.05
6387;BME280;3226;42.162;24.756;2023-04-08T06:57:33;100058.75;;;10.05;74.18
6387;BME280;3226;42.162;24.756;2023-04-08T07:00:01;100051.75;;;10.06;72.62
6387;BME280;3226;42.162;24.756;2023-04-08T07:02:29;100053.00;;;9.64;73.36
6387;BME280;3226;42.162;24.756;2023-04-08T07:04:57;100056.66;;;9.86;73.72
6387;BME280;3226;42.162;24.756;2023-04-08T07:07:25;100053.06;;;9.51;74.12
6387;BME280;3226;42.162;24.756;2023-04-08T07:09:54;100052.91;;;8.52;77.42
6387;BME280;3226;42.162;24.756;2023-04-08T07:12:22;100047.75;;;9.03;76.93
6387;BME280;3226;42.162;24.756;2023-04-08T07:14:50;100054.72;;;9.77;73.25
6387;BME280;3226;42.162;24.756;2023-04-08T07:17:18;100068.28;;;9.58;72.41
6387;BME280;3226;42.162;24.756;2023-04-08T07:19:46;100063.41;;;10.02;72.83
6387;BME280;3226;42.162;24.756;2023-04-08T07:22:15;100062.88;;;10.21;70.71
6387;BME280;3226;42.162;24.756;2023-04-08T07:24:44;100065.97;;;10.73;69.28
6387;BME280;3226;42.162;24.756;2023-04-08T07:27:16;100061.31;;;11.34;68.09
6387;BME280;3226;42.162;24.756;2023-04-08T07:29:44;100067.09;;;11.71;64.79
6387;BME280;3226;42.162;24.756;2023-04-08T07:32:12;100055.84;;;10.68;67.99
6387;BME280;3226;42.162;24.756;2023-04-08T07:34:40;100058.13;;;10.73;67.23
6387;BME280;3226;42.162;24.756;2023-04-08T07:37:08;100058.03;;;10.27;69.52
6387;BME280;3226;42.162;24.756;2023-04-08T07:39:36;100059.63;;;9.81;72.84
6387;BME280;3226;42.162;24.756;2023-04-08T07:42:04;100065.34;;;10.47;70.81
6387;BME280;3226;42.162;24.756;2023-04-08T07:44:33;100057.06;;;10.98;67.58
6387;BME280;3226;42.162;24.756;2023-04-08T07:47:01;100057.44;;;11.61;65.38
6387;BME280;3226;42.162;24.756;2023-04-08T07:49:29;100060.88;;;12.05;62.80
6387;BME280;3226;42.162;24.756;2023-04-08T07:51:57;100059.88;;;12.18;61.63
6387;BME280;3226;42.162;24.756;2023-04-08T07:54:25;100055.00;;;12.34;62.95
6387;BME280;3226;42.162;24.756;2023-04-08T07:56:53;100053.81;;;11.73;64.17
6387;BME280;3226;42.162;24.756;2023-04-08T07:59:22;100059.81;;;11.64;63.82
6387;BME280;3226;42.162;24.756;2023-04-08T08:01:51;100054.88;;;11.82;62.76
6387;BME280;3226;42.162;24.756;2023-04-08T08:04:20;100064.22;;;12.07;61.89
6387;BME280;3226;42.162;24.756;2023-04-08T08:06:51;100068.97;;;12.13;61.86
6387;BME280;3226;42.162;24.756;2023-04-08T08:09:19;100062.75;;;12.14;63.00
6387;BME280;3226;42.162;24.756;2023-04-08T08:11:47;100063.19;;;11.87;62.47
6387;BME280;3226;42.162;24.756;2023-04-08T08:14:15;100066.88;;;11.96;61.78
6387;BME280;3226;42.162;24.756;2023-04-08T08:16:43;100068.06;;;12.46;59.79
6387;BME280;3226;42.162;24.756;2023-04-08T08:19:12;100072.28;;;12.15;60.51
6387;BME280;3226;42.162;24.756;2023-04-08T08:21:40;100069.66;;;11.83;62.24
6387;BME280;3226;42.162;24.756;2023-04-08T08:24:08;100066.84;;;12.50;60.92
6387;BME280;3226;42.162;24.756;2023-04-08T08:26:36;100058.16;;;12.49;63.53
6387;BME280;3226;42.162;24.756;2023-04-08T08:29:05;100059.91;;;12.70;60.69
6387;BME280;3226;42.162;24.756;2023-04-08T08:31:34;100058.88;;;13.23;61.27
6387;BME280;3226;42.162;24.756;2023-04-08T08:34:02;100058.59;;;13.16;58.25
6387;BME280;3226;42.162;24.756;2023-04-08T08:36:31;100051.75;;;12.21;60.24
6387;BME280;3226;42.162;24.756;2023-04-08T08:39:00;100026.94;;;12.13;61.80
6387;BME280;3226;42.162;24.756;2023-04-08T08:41:32;100048.63;;;12.27;59.53
6387;BME280;3226;42.162;24.756;2023-04-08T08:44:01;100059.78;;;12.71;56.99
6387;BME280;3226;42.162;24.756;2023-04-08T08:46:32;100054.63;;;12.91;56.18
6387;BME280;3226;42.162;24.756;2023-04-08T08:49:01;100051.56;;;13.27;56.17
6387;BME280;3226;42.162;24.756;2023-04-08T08:51:29;100047.75;;;12.48;59.03
6387;BME280;3226;42.162;24.756;2023-04-08T08:54:02;100046.84;;;12.58;58.76
6387;BME280;3226;42.162;24.756;2023-04-08T08:56:32;100034.97;;;12.33;57.76
6387;BME280;3226;42.162;24.756;2023-04-08T08:59:00;100043.91;;;12.31;57.38
6387;BME280;3226;42.162;24.756;2023-04-08T09:01:29;100030.47;;;13.17;55.06
6387;BME280;3226;42.162;24.756;2023-04-08T09:04:09;100049.28;;;13.93;51.94
6387;BME280;3226;42.162;24.756;2023-04-08T09:06:38;100049.69;;;13.49;52.52
6387;BME280;3226;42.162;24.756;2023-04-08T09:09:08;100041.13;;;14.15;50.67
6387;BME280;3226;42.162;24.756;2023-04-08T09:11:40;100043.56;;;14.37;50.43
6387;BME280;3226;42.162;24.756;2023-04-08T09:14:19;100042.94;;;13.85;50.84
6387;BME280;3226;42.162;24.756;2023-04-08T09:16:47;100043.81;;;13.35;51.70
6387;BME280;3226;42.162;24.756;2023-04-08T09:19:15;100033.44;;;13.34;54.43
6387;BME280;3226;42.162;24.756;2023-04-08T09:21:43;100046.56;;;11.98;52.57
6387;BME280;3226;42.162;24.756;2023-04-08T09:24:28;100042.66;;;12.04;55.04
6387;BME280;3226;42.162;24.756;2023-04-08T09:26:57;100039.38;;;12.11;52.48
6387;BME280;3226;42.162;24.756;2023-04-08T09:29:26;100036.44;;;11.93;55.37
6387;BME280;3226;42.162;24.756;2023-04-08T09:32:00;100019.19;;;10.91;58.09
6387;BME280;3226;42.162;24.756;2023-04-08T09:34:29;100038.69;;;11.10;58.19
6387;BME280;3226;42.162;24.756;2023-04-08T09:37:00;100028.78;;;11.69;55.73
6387;BME280;3226;42.162;24.756;2023-04-08T09:39:29;100040.75;;;11.62;51.54
6387;BME280;3226;42.162;24.756;2023-04-08T09:41:59;100042.13;;;12.10;51.43
6387;BME280;3226;42.162;24.756;2023-04-08T09:44:34;100023.75;;;12.31;51.95
6387;BME280;3226;42.162;24.756;2023-04-08T09:47:07;100033.59;;;12.60;52.33
6387;BME280;3226;42.162;24.756;2023-04-08T09:49:39;100045.91;;;13.41;49.97
6387;BME280;3226;42.162;24.756;2023-04-08T09:52:13;100036.41;;;13.99;48.03
6387;BME280;3226;42.162;24.756;2023-04-08T09:54:52;100040.84;;;13.69;48.49
6387;BME280;3226;42.162;24.756;2023-04-08T09:57:30;100042.34;;;12.70;48.97
6387;BME280;3226;42.162;24.756;2023-04-08T10:00:03;100047.44;;;12.62;49.83
6387;BME280;3226;42.162;24.756;2023-04-08T10:02:39;100049.81;;;12.96;49.50
6387;BME280;3226;42.162;24.756;2023-04-08T10:05:10;100041.28;;;12.73;50.93
6387;BME280;3226;42.162;24.756;2023-04-08T10:07:40;100045.25;;;12.67;51.98
6387;BME280;3226;42.162;24.756;2023-04-08T10:10:10;100044.09;;;13.32;50.95
6387;BME280;3226;42.162;24.756;2023-04-08T10:12:39;100025.88;;;13.60;49.39
6387;BME280;3226;42.162;24.756;2023-04-08T10:15:24;100028.00;;;13.15;50.75
6387;BME280;3226;42.162;24.756;2023-04-08T10:17:52;100022.59;;;13.17;51.36
6387;BME280;3226;42.162;24.756;2023-04-08T10:20:40;100014.97;;;13.65;51.63
6387;BME280;3226;42.162;24.756;2023-04-08T10:23:09;100025.84;;;14.29;50.48
6387;BME280;3226;42.162;24.756;2023-04-08T10:25:39;100018.94;;;14.18;49.39
6387;BME280;3226;42.162;24.756;2023-04-08T10:28:24;100020.88;;;13.47;51.55
6387;BME280;3226;42.162;24.756;2023-04-08T10:30:54;100022.50;;;13.38;51.08
6387;BME280;3226;42.162;24.756;2023-04-08T10:33:24;100002.59;;;13.55;50.84
6387;BME280;3226;42.162;24.756;2023-04-08T10:35:59;100002.06;;;13.71;52.97
6387;BME280;3226;42.162;24.756;2023-04-08T10:38:30;100014.66;;;13.07;51.84
6387;BME280;3226;42.162;24.756;2023-04-08T10:41:00;100015.25;;;13.11;51.30
6387;BME280;3226;42.162;24.756;2023-04-08T10:43:31;100003.81;;;12.81;52.16
6387;BME280;3226;42.162;24.756;2023-04-08T10:46:00;100005.72;;;13.20;53.37
6387;BME280;3226;42.162;24.756;2023-04-08T10:48:28;99999.00;;;13.96;49.73
6387;BME280;3226;42.162;24.756;2023-04-08T10:50:57;99996.78;;;14.01;49.75
6387;BME280;3226;42.162;24.756;2023-04-08T10:53:26;99981.41;;;14.06;49.02
6387;BME280;3226;42.162;24.756;2023-04-08T10:56:04;99899.88;;;13.67;48.51
6387;BME280;3226;42.162;24.756;2023-04-08T10:58:33;99985.69;;;13.28;50.92
6387;BME280;3226;42.162;24.756;2023-04-08T11:01:03;99981.19;;;12.99;51.79
6387;BME280;3226;42.162;24.756;2023-04-08T11:03:32;99978.66;;;13.68;50.29
6387;BME280;3226;42.162;24.756;2023-04-08T11:06:01;99977.41;;;13.92;50.08
6387;BME280;3226;42.162;24.756;2023-04-08T11:08:29;99968.03;;;14.27;48.74
6387;BME280;3226;42.162;24.756;2023-04-08T11:10:58;99963.28;;;13.83;49.54
6387;BME280;3226;42.162;24.756;2023-04-08T11:13:28;99949.28;;;13.43;50.70
6387;BME280;3226;42.162;24.756;2023-04-08T11:15:57;99968.66;;;13.92;52.14
6387;BME280;3226;42.162;24.756;2023-04-08T11:18:26;99963.88;;;14.25;49.10
6387;BME280;3226;42.162;24.756;2023-04-08T11:20:54;99959.53;;;14.43;48.91
6387;BME280;3226;42.162;24.756;2023-04-08T11:23:25;99957.41;;;14.47;49.83
6387;BME280;3226;42.162;24.756;2023-04-08T11:25:53;99959.28;;;14.74;48.04
6387;BME280;3226;42.162;24.756;2023-04-08T11:28:22;99954.09;;;14.45;48.89
6387;BME280;3226;42.162;24.756;2023-04-08T11:30:53;99936.16;;;14.58;48.61
6387;BME280;3226;42.162;24.756;2023-04-08T11:33:23;99943.91;;;14.60;48.41
6387;BME280;3226;42.162;24.756;2023-04-08T11:35:52;99950.94;;;14.41;49.02
6387;BME280;3226;42.162;24.756;2023-04-08T11:38:21;99942.50;;;13.61;50.35
6387;BME280;3226;42.162;24.756;2023-04-08T11:40:53;99938.88;;;13.42;51.53
6387;BME280;3226;42.162;24.756;2023-04-08T11:43:21;99930.34;;;13.50;51.09
6387;BME280;3226;42.162;24.756;2023-04-08T11:45:51;99926.41;;;13.24;52.04
6387;BME280;3226;42.162;24.756;2023-04-08T11:48:19;99921.19;;;13.44;52.58
6387;BME280;3226;42.162;24.756;2023-04-08T11:50:46;99926.41;;;13.05;52.90
6387;BME280;3226;42.162;24.756;2023-04-08T11:53:17;99914.22;;;13.23;54.04
6387;BME280;3226;42.162;24.756;2023-04-08T11:55:46;99912.44;;;13.34;52.42
6387;BME280;3226;42.162;24.756;2023-04-08T11:58:15;99918.81;;;13.41;52.07
6387;BME280;3226;42.162;24.756;2023-04-08T12:00:43;99917.03;;;13.51;52.51
6387;BME280;3226;42.162;24.756;2023-04-08T12:03:12;99905.41;;;13.64;52.17
6387;BME280;3226;42.162;24.756;2023-04-08T12:05:41;99902.63;;;13.65;51.77
6387;BME280;3226;42.162;24.756;2023-04-08T12:08:09;99907.31;;;13.71;52.02
6387;BME280;3226;42.162;24.756;2023-04-08T12:10:37;99906.41;;;14.10;51.23
6387;BME280;3226;42.162;24.756;2023-04-08T12:13:05;99905.66;;;13.70;52.54
6387;BME280;3226;42.162;24.756;2023-04-08T12:15:33;99901.50;;;13.19;53.25
6387;BME280;3226;42.162;24.756;2023-04-08T12:18:01;99886.84;;;13.55;53.37
6387;BME280;3226;42.162;24.756;2023-04-08T12:20:30;99897.94;;;13.59;53.43
6387;BME280;3226;42.162;24.756;2023-04-08T12:22:58;99888.91;;;13.42;53.44
6387;BME280;3226;42.162;24.756;2023-04-08T12:25:26;99884.03;;;13.77;52.00
6387;BME280;3226;42.162;24.756;2023-04-08T12:27:54;99883.16;;;13.96;51.51
6387;BME280;3226;42.162;24.756;2023-04-08T12:30:22;99878.50;;;13.80;52.84
6387;BME280;3226;42.162;24.756;2023-04-08T12:32:50;99878.59;;;13.98;51.46
6387;BME280;3226;42.162;24.756;2023-04-08T12:35:20;99875.75;;;14.19;51.27
6387;BME280;3226;42.162;24.756;2023-04-08T12:37:50;99870.03;;;13.86;51.61
6387;BME280;3226;42.162;24.756;2023-04-08T12:40:18;99867.63;;;14.02;51.00
6387;BME280;3226;42.162;24.756;2023-04-08T12:42:46;99872.56;;;14.15;50.98
6387;BME280;3226;42.162;24.756;2023-04-08T12:45:14;99873.59;;;14.32;49.77
6387;BME280;3226;42.162;24.756;2023-04-08T12:47:42;99869.75;;;14.55;49.73
6387;BME280;3226;42.162;24.756;2023-04-08T12:50:10;99870.66;;;14.64;49.83
6387;BME280;3226;42.162;24.756;2023-04-08T12:52:38;99856.19;;;14.50;48.98
6387;BME280;3226;42.162;24.756;2023-04-08T12:55:08;99849.06;;;14.32;50.09
6387;BME280;3226;42.162;24.756;2023-04-08T12:57:36;99863.78;;;14.53;50.87
6387;BME280;3226;42.162;24.756;2023-04-08T13:00:05;99864.97;;;14.68;49.62
6387;BME280;3226;42.162;24.756;2023-04-08T13:02:33;99861.78;;;14.65;50.07
6387;BME280;3226;42.162;24.756;2023-04-08T13:05:01;99852.03;;;14.75;48.59
6387;BME280;3226;42.162;24.756;2023-04-08T13:07:31;99845.28;;;14.91;48.62
6387;BME280;3226;42.162;24.756;2023-04-08T13:09:59;99854.91;;;14.54;49.00
6387;BME280;3226;42.162;24.756;2023-04-08T13:12:28;99845.22;;;14.54;50.21
6387;BME280;3226;42.162;24.756;2023-04-08T13:14:57;99837.09;;;14.66;48.65
6387;BME280;3226;42.162;24.756;2023-04-08T13:17:25;99842.53;;;14.36;49.28
6387;BME280;3226;42.162;24.756;2023-04-08T13:19:54;99808.34;;;13.88;49.65
6387;BME280;3226;42.162;24.756;2023-04-08T13:22:21;99836.66;;;14.14;49.38